sensor_id;sensor_type;location;lat;lon;timestamp;temperature;humidity
29775;DHT22;16676;51.202;6.774;2023-04-01T00:01:32;18.60;79.00
29775;DHT22;16676;51.202;6.774;2023-04-01T00:05:35;18.60;78.80
29775;DHT22;16676;51.202;6.774;2023-04-01T00:09:37;18.60;78.00
29775;DHT22;16676;51.202;6.774;2023-04-01T00:13:40;18.60;79.00
29775;DHT22;16676;51.202;6.774;2023-04-01T00:17:42;18.60;78.50
29775;DHT22;16676;51.202;6.774;2023-04-01T00:21:46;18.60;79.80
29775;DHT22;16676;51.202;6.774;2023-04-01T00:25:48;18.60;78.90
29775;DHT22;16676;51.202;6.774;2023-04-01T00:29:51;18.60;78.40
29775;DHT22;16676;51.202;6.774;2023-04-01T00:33:53;18.60;78.40
29775;DHT22;16676;51.202;6.774;2023-04-01T00:37:56;18.60;78.70
29775;DHT22;16676;51.202;6.774;2023-04-01T00:41:59;18.60;78.40
29775;DHT22;16676;51.202;6.774;2023-04-01T00:46:01;18.50;78.70
29775;DHT22;16676;51.202;6.774;2023-04-01T00:50:03;18.50;78.90
29775;DHT22;16676;51.202;6.774;2023-04-01T00:54:08;18.50;78.80
29775;DHT22;16676;51.202;6.774;2023-04-01T00:58:14;18.60;80.30
29775;DHT22;16676;51.202;6.774;2023-04-01T01:02:17;18.50;78.90
29775;DHT22;16676;51.202;6.774;2023-04-01T01:06:43;18.50;78.90
29775;DHT22;16676;51.202;6.774;2023-04-01T01:10:50;18.50;79.20
29775;DHT22;16676;51.202;6.774;2023-04-01T01:14:57;18.50;79.00
29775;DHT22;16676;51.202;6.774;2023-04-01T01:19:10;18.50;78.50
29775;DHT22;16676;51.202;6.774;2023-04-01T01:28:21;18.50;78.40
29775;DHT22;16676;51.202;6.774;2023-04-01T01:32:41;18.50;78.60
29775;DHT22;16676;51.202;6.774;2023-04-01T01:36:50;18.50;79.10
29775;DHT22;16676;51.202;6.774;2023-04-01T01:40:56;18.50;78.60
29775;DHT22;16676;51.202;6.774;2023-04-01T01:45:00;18.50;79.70
29775;DHT22;16676;51.202;6.774;2023-04-01T01:49:03;18.50;79.10
29775;DHT22;16676;51.202;6.774;2023-04-01T01:53:08;18.50;78.60
29775;DHT22;16676;51.202;6.774;2023-04-01T01:57:10;18.50;79.30
29775;DHT22;16676;51.202;6.774;2023-04-01T02:01:16;18.50;79.20
29775;DHT22;16676;51.202;6.774;2023-04-01T02:05:21;18.50;78.20
29775;DHT22;16676;51.202;6.774;2023-04-01T02:09:26;18.50;78.90
29775;DHT22;16676;51.202;6.774;2023-04-01T02:13:33;18.50;79.20
29775;DHT22;16676;51.202;6.774;2023-04-01T02:17:40;18.50;78.80
29775;DHT22;16676;51.202;6.774;2023-04-01T02:21:44;18.40;79.30
29775;DHT22;16676;51.202;6.774;2023-04-01T02:25:47;18.40;79.60
29775;DHT22;16676;51.202;6.774;2023-04-01T02:29:50;18.40;78.90
29775;DHT22;16676;51.202;6.774;2023-04-01T02:33:53;18.50;79.70
29775;DHT22;16676;51.202;6.774;2023-04-01T02:37:56;18.40;78.70
29775;DHT22;16676;51.202;6.774;2023-04-01T02:41:59;18.40;78.60
29775;DHT22;16676;51.202;6.774;2023-04-01T02:46:01;18.40;78.60
29775;DHT22;16676;51.202;6.774;2023-04-01T02:50:04;18.40;79.50
29775;DHT22;16676;51.202;6.774;2023-04-01T02:54:06;18.40;78.40
29775;DHT22;16676;51.202;6.774;2023-04-01T02:58:10;18.40;79.20
29775;DHT22;16676;51.202;6.774;2023-04-01T03:02:12;18.40;78.80
29775;DHT22;16676;51.202;6.774;2023-04-01T03:06:15;18.40;79.30
29775;DHT22;16676;51.202;6.774;2023-04-01T03:10:18;18.40;78.70
29775;DHT22;16676;51.202;6.774;2023-04-01T03:14:21;18.40;78.90
29775;DHT22;16676;51.202;6.774;2023-04-01T03:18:23;18.40;79.30
29775;DHT22;16676;51.202;6.774;2023-04-01T03:22:25;18.40;79.00
29775;DHT22;16676;51.202;6.774;2023-04-01T03:26:27;18.40;78.80
29775;DHT22;16676;51.202;6.774;2023-04-01T03:30:30;18.40;79.40
29775;DHT22;16676;51.202;6.774;2023-04-01T03:34:32;18.40;79.00
29775;DHT22;16676;51.202;6.774;2023-04-01T03:38:35;18.40;78.40
29775;DHT22;16676;51.202;6.774;2023-04-01T03:42:37;18.30;78.80
29775;DHT22;16676;51.202;6.774;2023-04-01T03:46:40;18.40;78.90
29775;DHT22;16676;51.202;6.774;2023-04-01T03:50:43;18.30;78.70
29775;DHT22;16676;51.202;6.774;2023-04-01T03:54:45;18.40;79.20
29775;DHT22;16676;51.202;6.774;2023-04-01T03:58:47;18.40;78.70
29775;DHT22;16676;51.202;6.774;2023-04-01T04:02:50;18.40;79.40
29775;DHT22;16676;51.202;6.774;2023-04-01T04:06:52;18.30;79.10
29775;DHT22;16676;51.202;6.774;2023-04-01T04:10:57;18.30;78.70
29775;DHT22;16676;51.202;6.774;2023-04-01T04:14:59;18.40;78.90
29775;DHT22;16676;51.202;6.774;2023-04-01T04:19:02;18.40;78.50
29775;DHT22;16676;51.202;6.774;2023-04-01T04:23:04;18.40;79.50
29775;DHT22;16676;51.202;6.774;2023-04-01T04:27:06;18.30;80.00
29775;DHT22;16676;51.202;6.774;2023-04-01T04:31:08;18.30;79.00
29775;DHT22;16676;51.202;6.774;2023-04-01T04:35:12;18.30;79.70
29775;DHT22;16676;51.202;6.774;2023-04-01T04:39:14;18.30;79.10
29775;DHT22;16676;51.202;6.774;2023-04-01T04:43:17;18.30;78.90
29775;DHT22;16676;51.202;6.774;2023-04-01T04:47:19;18.30;79.40
29775;DHT22;16676;51.202;6.774;2023-04-01T04:51:22;18.30;79.70
29775;DHT22;16676;51.202;6.774;2023-04-01T04:55:24;18.30;79.30
29775;DHT22;16676;51.202;6.774;2023-04-01T04:59:26;18.30;80.90
29775;DHT22;16676;51.202;6.774;2023-04-01T05:03:27;18.30;79.00
29775;DHT22;16676;51.202;6.774;2023-04-01T05:07:31;18.30;78.90
29775;DHT22;16676;51.202;6.774;2023-04-01T05:11:33;18.30;78.70
29775;DHT22;16676;51.202;6.774;2023-04-01T05:15:35;18.30;79.20
29775;DHT22;16676;51.202;6.774;2023-04-01T05:19:38;18.30;78.80
29775;DHT22;16676;51.202;6.774;2023-04-01T05:23:42;18.20;78.60
29775;DHT22;16676;51.202;6.774;2023-04-01T05:27:44;18.30;78.80
29775;DHT22;16676;51.202;6.774;2023-04-01T05:31:46;18.30;79.40
29775;DHT22;16676;51.202;6.774;2023-04-01T05:35:48;18.30;79.20
29775;DHT22;16676;51.202;6.774;2023-04-01T05:39:51;18.30;79.10
29775;DHT22;16676;51.202;6.774;2023-04-01T05:43:53;18.20;78.70
29775;DHT22;16676;51.202;6.774;2023-04-01T05:47:55;18.30;79.00
29775;DHT22;16676;51.202;6.774;2023-04-01T05:51:57;18.30;79.30
29775;DHT22;16676;51.202;6.774;2023-04-01T05:56:03;18.30;79.10
29775;DHT22;16676;51.202;6.774;2023-04-01T06:00:06;18.30;78.80
29775;DHT22;16676;51.202;6.774;2023-04-01T06:04:13;18.30;78.90
29775;DHT22;16676;51.202;6.774;2023-04-01T06:08:17;18.30;79.60
29775;DHT22;16676;51.202;6.774;2023-04-01T06:12:43;18.30;79.60
29775;DHT22;16676;51.202;6.774;2023-04-01T06:16:58;18.30;79.60
29775;DHT22;16676;51.202;6.774;2023-04-01T06:21:21;18.30;78.70
29775;DHT22;16676;51.202;6.774;2023-04-01T06:30:02;18.20;78.70
29775;DHT22;16676;51.202;6.774;2023-04-01T06:38:51;18.20;80.10
29775;DHT22;16676;51.202;6.774;2023-04-01T06:43:01;18.30;79.60
29775;DHT22;16676;51.202;6.774;2023-04-01T06:47:21;18.30;79.70
29775;DHT22;16676;51.202;6.774;2023-04-01T06:51:33;18.20;80.00
29775;DHT22;16676;51.202;6.774;2023-04-01T06:55:42;18.20;79.60
29775;DHT22;16676;51.202;6.774;2023-04-01T06:59:47;18.20;80.60
29775;DHT22;16676;51.202;6.774;2023-04-01T07:03:54;18.20;80.20
29775;DHT22;16676;51.202;6.774;2023-04-01T07:08:01;18.20;79.90
29775;DHT22;16676;51.202;6.774;2023-04-01T07:12:11;18.30;79.00
29775;DHT22;16676;51.202;6.774;2023-04-01T07:16:18;18.20;78.90
29775;DHT22;16676;51.202;6.774;2023-04-01T07:20:24;18.20;79.20
29775;DHT22;16676;51.202;6.774;2023-04-01T07:24:33;18.20;80.50
29775;DHT22;16676;51.202;6.774;2023-04-01T07:28:35;18.20;79.30
29775;DHT22;16676;51.202;6.774;2023-04-01T07:32:40;18.20;78.90
29775;DHT22;16676;51.202;6.774;2023-04-01T07:36:48;18.20;78.80
29775;DHT22;16676;51.202;6.774;2023-04-01T07:40:55;18.20;79.30
29775;DHT22;16676;51.202;6.774;2023-04-01T07:45:08;18.20;79.60
29775;DHT22;16676;51.202;6.774;2023-04-01T07:49:17;18.20;79.70
29775;DHT22;16676;51.202;6.774;2023-04-01T07:53:27;18.20;79.30
29775;DHT22;16676;51.202;6.774;2023-04-01T07:57:36;18.20;78.90
29775;DHT22;16676;51.202;6.774;2023-04-01T08:01:45;18.20;78.80
29775;DHT22;16676;51.202;6.774;2023-04-01T08:05:55;18.20;78.90
29775;DHT22;16676;51.202;6.774;2023-04-01T08:10:08;18.20;78.90
29775;DHT22;16676;51.202;6.774;2023-04-01T08:14:18;18.20;78.60
29775;DHT22;16676;51.202;6.774;2023-04-01T08:18:31;18.20;78.80
29775;DHT22;16676;51.202;6.774;2023-04-01T08:22:40;18.20;78.30
29775;DHT22;16676;51.202;6.774;2023-04-01T08:26:48;18.20;78.90
29775;DHT22;16676;51.202;6.774;2023-04-01T08:30:53;18.20;78.70
29775;DHT22;16676;51.202;6.774;2023-04-01T08:35:08;18.20;78.40
29775;DHT22;16676;51.202;6.774;2023-04-01T08:39:16;18.20;78.70
29775;DHT22;16676;51.202;6.774;2023-04-01T08:43:40;18.20;79.50
29775;DHT22;16676;51.202;6.774;2023-04-01T08:47:55;18.10;80.80
29775;DHT22;16676;51.202;6.774;2023-04-01T08:52:35;18.20;80.60
29775;DHT22;16676;51.202;6.774;2023-04-01T08:56:41;18.20;80.30
29775;DHT22;16676;51.202;6.774;2023-04-01T09:00:49;18.20;80.40
29775;DHT22;16676;51.202;6.774;2023-04-01T09:09:55;18.20;79.50
29775;DHT22;16676;51.202;6.774;2023-04-01T09:14:28;18.30;80.30
29775;DHT22;16676;51.202;6.774;2023-04-01T09:19:07;18.30;79.90
29775;DHT22;16676;51.202;6.774;2023-04-01T09:23:29;18.20;78.90
29775;DHT22;16676;51.202;6.774;2023-04-01T09:27:39;18.30;78.40
29775;DHT22;16676;51.202;6.774;2023-04-01T09:32:04;18.30;78.50
29775;DHT22;16676;51.202;6.774;2023-04-01T09:36:21;18.30;78.50
29775;DHT22;16676;51.202;6.774;2023-04-01T09:40:37;18.20;78.70
29775;DHT22;16676;51.202;6.774;2023-04-01T09:44:48;18.20;78.20
29775;DHT22;16676;51.202;6.774;2023-04-01T09:53:55;18.20;79.10
29775;DHT22;16676;51.202;6.774;2023-04-01T09:58:19;18.20;78.40
29775;DHT22;16676;51.202;6.774;2023-04-01T10:07:38;18.20;79.00
29775;DHT22;16676;51.202;6.774;2023-04-01T10:12:10;18.20;78.50
29775;DHT22;16676;51.202;6.774;2023-04-01T10:16:54;18.20;77.90
29775;DHT22;16676;51.202;6.774;2023-04-01T10:26:02;18.20;78.00
29775;DHT22;16676;51.202;6.774;2023-04-01T10:30:39;18.20;78.60
29775;DHT22;16676;51.202;6.774;2023-04-01T10:35:24;18.20;78.60
29775;DHT22;16676;51.202;6.774;2023-04-01T10:44:44;18.20;78.10
29775;DHT22;16676;51.202;6.774;2023-04-01T10:53:51;18.20;78.30
29775;DHT22;16676;51.202;6.774;2023-04-01T11:07:28;18.20;78.90
29775;DHT22;16676;51.202;6.774;2023-04-01T11:12:04;18.30;79.20
29775;DHT22;16676;51.202;6.774;2023-04-01T11:16:42;18.20;80.00
29775;DHT22;16676;51.202;6.774;2023-04-01T11:25:51;18.20;80.00
29775;DHT22;16676;51.202;6.774;2023-04-01T11:30:11;18.30;79.10
29775;DHT22;16676;51.202;6.774;2023-04-01T11:34:28;18.20;80.30
29775;DHT22;16676;51.202;6.774;2023-04-01T11:38:53;18.30;79.50
29775;DHT22;16676;51.202;6.774;2023-04-01T11:43:01;18.20;80.20
29775;DHT22;16676;51.202;6.774;2023-04-01T11:47:44;18.30;79.70
29775;DHT22;16676;51.202;6.774;2023-04-01T11:52:03;18.30;78.60
29775;DHT22;16676;51.202;6.774;2023-04-01T11:56:13;18.20;79.30
29775;DHT22;16676;51.202;6.774;2023-04-01T12:00:41;18.30;78.90
29775;DHT22;16676;51.202;6.774;2023-04-01T12:05:13;18.30;79.10
29775;DHT22;16676;51.202;6.774;2023-04-01T12:09:22;18.20;79.40
29775;DHT22;16676;51.202;6.774;2023-04-01T12:13:35;18.20;79.10
29775;DHT22;16676;51.202;6.774;2023-04-01T12:17:46;18.20;78.80
29775;DHT22;16676;51.202;6.774;2023-04-01T12:22:02;18.20;78.30
29775;DHT22;16676;51.202;6.774;2023-04-01T12:26:35;18.20;78.90
29775;DHT22;16676;51.202;6.774;2023-04-01T12:31:02;18.20;79.10
29775;DHT22;16676;51.202;6.774;2023-04-01T12:35:22;18.30;78.90
29775;DHT22;16676;51.202;6.774;2023-04-01T12:39:44;18.20;79.10
29775;DHT22;16676;51.202;6.774;2023-04-01T12:44:07;18.20;80.70
29775;DHT22;16676;51.202;6.774;2023-04-01T12:48:31;18.20;79.20
29775;DHT22;16676;51.202;6.774;2023-04-01T12:52:54;18.20;80.80
29775;DHT22;16676;51.202;6.774;2023-04-01T12:57:16;18.10;81.40
29775;DHT22;16676;51.202;6.774;2023-04-01T13:02:01;18.20;79.90
29775;DHT22;16676;51.202;6.774;2023-04-01T13:06:22;18.10;79.30
29775;DHT22;16676;51.202;6.774;2023-04-01T13:10:36;17.90;77.90
29775;DHT22;16676;51.202;6.774;2023-04-01T13:19:25;17.50;76.80
29775;DHT22;16676;51.202;6.774;2023-04-01T13:23:37;17.50;77.90
29775;DHT22;16676;51.202;6.774;2023-04-01T13:27:44;17.50;77.60
29775;DHT22;16676;51.202;6.774;2023-04-01T13:32:05;17.40;77.20
29775;DHT22;16676;51.202;6.774;2023-04-01T13:36:16;17.30;77.80
29775;DHT22;16676;51.202;6.774;2023-04-01T13:40:33;17.30;78.10
29775;DHT22;16676;51.202;6.774;2023-04-01T13:44:41;17.30;77.40
29775;DHT22;16676;51.202;6.774;2023-04-01T13:49:15;17.40;77.50
29775;DHT22;16676;51.202;6.774;2023-04-01T13:53:38;17.30;76.80
29775;DHT22;16676;51.202;6.774;2023-04-01T13:58:17;17.20;77.80
29775;DHT22;16676;51.202;6.774;2023-04-01T14:02:41;17.10;77.90
29775;DHT22;16676;51.202;6.774;2023-04-01T14:06:57;17.20;77.60
29775;DHT22;16676;51.202;6.774;2023-04-01T14:11:13;17.30;77.50
29775;DHT22;16676;51.202;6.774;2023-04-01T14:15:29;17.30;77.40
29775;DHT22;16676;51.202;6.774;2023-04-01T14:19:53;17.40;77.70
29775;DHT22;16676;51.202;6.774;2023-04-01T14:24:14;17.30;76.20
29775;DHT22;16676;51.202;6.774;2023-04-01T14:28:29;17.30;76.80
29775;DHT22;16676;51.202;6.774;2023-04-01T14:32:39;17.30;76.80
29775;DHT22;16676;51.202;6.774;2023-04-01T14:36:58;17.30;76.20
29775;DHT22;16676;51.202;6.774;2023-04-01T14:41:15;17.30;76.80
29775;DHT22;16676;51.202;6.774;2023-04-01T14:45:42;17.30;76.90
29775;DHT22;16676;51.202;6.774;2023-04-01T14:49:47;17.30;76.40
29775;DHT22;16676;51.202;6.774;2023-04-01T14:53:59;17.20;76.80
29775;DHT22;16676;51.202;6.774;2023-04-01T14:58:10;17.20;76.50
29775;DHT22;16676;51.202;6.774;2023-04-01T15:02:27;17.10;75.80
29775;DHT22;16676;51.202;6.774;2023-04-01T15:06:55;17.20;76.30
29775;DHT22;16676;51.202;6.774;2023-04-01T15:11:21;17.20;76.50
29775;DHT22;16676;51.202;6.774;2023-04-01T15:15:36;17.30;76.70
29775;DHT22;16676;51.202;6.774;2023-04-01T15:19:52;17.30;76.40
29775;DHT22;16676;51.202;6.774;2023-04-01T15:24:06;17.30;76.20
29775;DHT22;16676;51.202;6.774;2023-04-01T15:28:17;17.30;75.90
29775;DHT22;16676;51.202;6.774;2023-04-01T15:32:28;17.30;76.30
29775;DHT22;16676;51.202;6.774;2023-04-01T15:36:40;17.20;76.50
29775;DHT22;16676;51.202;6.774;2023-04-01T15:40:47;17.40;76.90
29775;DHT22;16676;51.202;6.774;2023-04-01T15:45:03;17.50;76.00
29775;DHT22;16676;51.202;6.774;2023-04-01T15:49:26;17.60;76.40
29775;DHT22;16676;51.202;6.774;2023-04-01T15:53:54;17.60;76.30
29775;DHT22;16676;51.202;6.774;2023-04-01T16:02:48;17.70;75.70
29775;DHT22;16676;51.202;6.774;2023-04-01T16:07:04;17.70;75.30
29775;DHT22;16676;51.202;6.774;2023-04-01T16:11:18;17.70;75.90
29775;DHT22;16676;51.202;6.774;2023-04-01T16:15:28;17.70;75.80
29775;DHT22;16676;51.202;6.774;2023-04-01T16:19:39;17.70;75.50
29775;DHT22;16676;51.202;6.774;2023-04-01T16:23:50;17.70;75.70
29775;DHT22;16676;51.202;6.774;2023-04-01T16:27:58;17.80;76.10
29775;DHT22;16676;51.202;6.774;2023-04-01T16:32:21;17.80;76.10
29775;DHT22;16676;51.202;6.774;2023-04-01T16:36:28;17.70;75.80
29775;DHT22;16676;51.202;6.774;2023-04-01T16:40:43;17.70;75.40
29775;DHT22;16676;51.202;6.774;2023-04-01T16:44:50;17.80;76.00
29775;DHT22;16676;51.202;6.774;2023-04-01T16:49:22;17.80;76.10
29775;DHT22;16676;51.202;6.774;2023-04-01T16:53:35;17.80;75.60
29775;DHT22;16676;51.202;6.774;2023-04-01T16:57:48;17.80;75.90
29775;DHT22;16676;51.202;6.774;2023-04-01T17:01:54;17.80;75.90
29775;DHT22;16676;51.202;6.774;2023-04-01T17:06:12;17.80;75.80
29775;DHT22;16676;51.202;6.774;2023-04-01T17:10:37;17.80;75.50
29775;DHT22;16676;51.202;6.774;2023-04-01T17:14:52;17.80;75.60
29775;DHT22;16676;51.202;6.774;2023-04-01T17:19:03;17.80;76.00
29775;DHT22;16676;51.202;6.774;2023-04-01T17:23:14;17.80;76.20
29775;DHT22;16676;51.202;6.774;2023-04-01T17:27:26;17.80;78.60
29775;DHT22;16676;51.202;6.774;2023-04-01T17:31:42;17.80;80.90
29775;DHT22;16676;51.202;6.774;2023-04-01T17:35:53;17.90;80.70
29775;DHT22;16676;51.202;6.774;2023-04-01T17:40:25;18.00;81.60
29775;DHT22;16676;51.202;6.774;2023-04-01T17:44:37;18.30;81.70
29775;DHT22;16676;51.202;6.774;2023-04-01T17:48:49;18.50;81.10
29775;DHT22;16676;51.202;6.774;2023-04-01T17:53:09;18.80;81.70
29775;DHT22;16676;51.202;6.774;2023-04-01T17:57:43;19.00;80.50
29775;DHT22;16676;51.202;6.774;2023-04-01T18:01:54;19.10;80.30
29775;DHT22;16676;51.202;6.774;2023-04-01T18:06:04;19.20;79.80
29775;DHT22;16676;51.202;6.774;2023-04-01T18:10:21;19.20;79.30
29775;DHT22;16676;51.202;6.774;2023-04-01T18:14:40;19.30;79.00
29775;DHT22;16676;51.202;6.774;2023-04-01T18:18:52;19.40;78.80
29775;DHT22;16676;51.202;6.774;2023-04-01T18:23:02;19.50;78.70
29775;DHT22;16676;51.202;6.774;2023-04-01T18:27:14;19.50;79.30
29775;DHT22;16676;51.202;6.774;2023-04-01T18:31:19;19.60;79.20
29775;DHT22;16676;51.202;6.774;2023-04-01T18:35:29;19.60;79.30
29775;DHT22;16676;51.202;6.774;2023-04-01T18:39:37;19.60;79.20
29775;DHT22;16676;51.202;6.774;2023-04-01T18:43:48;19.60;79.40
29775;DHT22;16676;51.202;6.774;2023-04-01T18:48:07;19.60;80.10
29775;DHT22;16676;51.202;6.774;2023-04-01T18:52:17;19.60;79.90
29775;DHT22;16676;51.202;6.774;2023-04-01T18:56:26;19.60;80.10
29775;DHT22;16676;51.202;6.774;2023-04-01T19:00:36;19.60;80.10
29775;DHT22;16676;51.202;6.774;2023-04-01T19:04:40;19.50;79.90
29775;DHT22;16676;51.202;6.774;2023-04-01T19:08:44;19.60;79.90
29775;DHT22;16676;51.202;6.774;2023-04-01T19:12:56;19.50;79.80
29775;DHT22;16676;51.202;6.774;2023-04-01T19:17:06;19.50;80.00
29775;DHT22;16676;51.202;6.774;2023-04-01T19:21:15;19.60;80.20
29775;DHT22;16676;51.202;6.774;2023-04-01T19:25:35;19.50;80.60
29775;DHT22;16676;51.202;6.774;2023-04-01T19:29:51;19.50;80.60
29775;DHT22;16676;51.202;6.774;2023-04-01T19:34:02;19.50;80.10
29775;DHT22;16676;51.202;6.774;2023-04-01T19:38:14;19.50;80.50
29775;DHT22;16676;51.202;6.774;2023-04-01T19:42:27;19.40;79.80
29775;DHT22;16676;51.202;6.774;2023-04-01T19:46:36;19.40;80.30
29775;DHT22;16676;51.202;6.774;2023-04-01T19:50:46;19.40;80.00
29775;DHT22;16676;51.202;6.774;2023-04-01T19:54:54;19.40;79.80
29775;DHT22;16676;51.202;6.774;2023-04-01T19:59:04;19.40;79.70
29775;DHT22;16676;51.202;6.774;2023-04-01T20:03:25;19.40;80.00
29775;DHT22;16676;51.202;6.774;2023-04-01T20:07:35;19.30;80.70
29775;DHT22;16676;51.202;6.774;2023-04-01T20:11:47;19.30;81.50
29775;DHT22;16676;51.202;6.774;2023-04-01T20:15:59;19.30;81.80
29775;DHT22;16676;51.202;6.774;2023-04-01T20:20:18;19.30;81.90
29775;DHT22;16676;51.202;6.774;2023-04-01T20:24:25;19.30;82.20
29775;DHT22;16676;51.202;6.774;2023-04-01T20:28:32;19.30;81.90
29775;DHT22;16676;51.202;6.774;2023-04-01T20:32:49;19.30;82.10
29775;DHT22;16676;51.202;6.774;2023-04-01T20:37:16;19.30;81.80
29775;DHT22;16676;51.202;6.774;2023-04-01T20:41:24;19.30;82.20
29775;DHT22;16676;51.202;6.774;2023-04-01T20:45:33;19.30;82.20
29775;DHT22;16676;51.202;6.774;2023-04-01T20:49:45;19.30;82.20
29775;DHT22;16676;51.202;6.774;2023-04-01T20:53:58;19.30;82.30
29775;DHT22;16676;51.202;6.774;2023-04-01T20:58:12;19.30;82.20
29775;DHT22;16676;51.202;6.774;2023-04-01T21:02:30;19.30;82.20
29775;DHT22;16676;51.202;6.774;2023-04-01T21:11:09;19.20;82.00
29775;DHT22;16676;51.202;6.774;2023-04-01T21:15:29;19.20;82.10
29775;DHT22;16676;51.202;6.774;2023-04-01T21:19:46;19.20;82.30
29775;DHT22;16676;51.202;6.774;2023-04-01T21:24:05;19.10;82.50
29775;DHT22;16676;51.202;6.774;2023-04-01T21:28:21;19.10;82.10
29775;DHT22;16676;51.202;6.774;2023-04-01T21:37:03;19.10;82.40
29775;DHT22;16676;51.202;6.774;2023-04-01T21:41:21;19.10;81.90
29775;DHT22;16676;51.202;6.774;2023-04-01T21:45:37;19.10;81.60
29775;DHT22;16676;51.202;6.774;2023-04-01T21:54:42;19.10;82.00
29775;DHT22;16676;51.202;6.774;2023-04-01T21:59:17;19.00;82.40
29775;DHT22;16676;51.202;6.774;2023-04-01T22:03:55;19.00;82.10
29775;DHT22;16676;51.202;6.774;2023-04-01T22:08:09;18.90;82.10
29775;DHT22;16676;51.202;6.774;2023-04-01T22:12:19;19.00;82.50
29775;DHT22;16676;51.202;6.774;2023-04-01T22:16:31;18.90;82.50
29775;DHT22;16676;51.202;6.774;2023-04-01T22:20:44;18.90;82.60
29775;DHT22;16676;51.202;6.774;2023-04-01T22:24:58;18.80;83.30
29775;DHT22;16676;51.202;6.774;2023-04-01T22:29:07;18.80;83.20
29775;DHT22;16676;51.202;6.774;2023-04-01T22:33:16;18.80;83.40
29775;DHT22;16676;51.202;6.774;2023-04-01T22:37:26;18.80;83.60
29775;DHT22;16676;51.202;6.774;2023-04-01T22:41:42;18.80;83.30
29775;DHT22;16676;51.202;6.774;2023-04-01T22:46:00;18.70;83.40
29775;DHT22;16676;51.202;6.774;2023-04-01T22:50:07;18.80;83.10
29775;DHT22;16676;51.202;6.774;2023-04-01T22:54:18;18.70;83.10
29775;DHT22;16676;51.202;6.774;2023-04-01T22:58:26;18.70;83.40
29775;DHT22;16676;51.202;6.774;2023-04-01T23:02:34;18.70;83.60
29775;DHT22;16676;51.202;6.774;2023-04-01T23:06:41;18.70;83.40
29775;DHT22;16676;51.202;6.774;2023-04-01T23:10:50;18.60;83.60
29775;DHT22;16676;51.202;6.774;2023-04-01T23:14:55;18.60;83.70
29775;DHT22;16676;51.202;6.774;2023-04-01T23:19:01;18.50;84.00
29775;DHT22;16676;51.202;6.774;2023-04-01T23:23:19;18.60;83.10
29775;DHT22;16676;51.202;6.774;2023-04-01T23:27:27;18.60;83.40
29775;DHT22;16676;51.202;6.774;2023-04-01T23:31:34;18.60;83.80
29775;DHT22;16676;51.202;6.774;2023-04-01T23:35:46;18.50;83.80
29775;DHT22;16676;51.202;6.774;2023-04-01T23:39:50;18.50;83.90
29775;DHT22;16676;51.202;6.774;2023-04-01T23:43:58;18.50;84.40
29775;DHT22;16676;51.202;6.774;2023-04-01T23:48:01;18.50;83.90
29775;DHT22;16676;51.202;6.774;2023-04-01T23:52:08;18.40;84.10
29775;DHT22;16676;51.202;6.774;2023-04-01T23:56:12;18.40;84.00
